Terremoto in Trentino-Alto Adige

Terremoto Ultim'ora - Orario Terremoto - Mappa di tutti i terremoti registrati in Italia nell'ultimo mese, aggiornamenti in tempo reale da INGV

 

I quadrati sulla mappa indicano posizione e intensità di tutti i terremoti registrati in Italia negli ultimi 30 giorni. Più è grande la dimensione e più è forte l'intensità registrata, suddivisa nei seguenti colori:

terremoto deboleTerremoto di debole intensità con magnitudo < 3
terremoto moderatoTerremoto di moderata intensità con magnitudo > 3 e < 4.5
terremoto forteTerremoto di forte intensità con magnitudo > 4.5 e < 6
terremoto molto forteTerremoto di intensità molto forte con magnitudo > 6

 

Lista e Orario Terremoti Oggi - Ultimi 30 giorni

Data Orario Luogo Coordinate Magnitudo Profondità
terremoto moderato28/10/2021 10.43 2 km W Belmonte Castello (FR) 41.5747N ,13.7918E M 3.1 8.6 km
terremoto debole28/10/2021 10.22 Tirreno Meridionale (MARE) 39.5183N ,14.4183E M 2.3 33.6 km
terremoto debole28/10/2021 09.42 Tirreno Meridionale (MARE) 39.5398N ,14.5903E M 2.8 23.1 km
terremoto debole28/10/2021 06.49 7 km S Cotronei (KR) 39.1303N ,16.7157E M 2.0 7.6 km
terremoto debole27/10/2021 20.06 Adriatico Centrale (MARE) 42.6317N ,16.21E M 2.3 9.8 km
terremoto debole27/10/2021 14.39 Isole Eolie (Messina) 38.676N ,15.1923E M 2.4 217.7 km
terremoto debole27/10/2021 10.31 Costa Barlettana (Barletta) 41.3565N ,16.2368E M 2.5 7.4 km
terremoto debole27/10/2021 06.05 Tirreno Meridionale (MARE) 40.649N ,13.1025E M 2.6 5.0 km
terremoto moderato26/10/2021 20.58 Isole Eolie (Messina) 38.426N ,14.451E M 3.2 13.8 km
terremoto moderato26/10/2021 17.53 Tirreno Meridionale (MARE) 38.9022N ,14.8997E M 3.4 297.9 km
terremoto debole26/10/2021 06.52 6 km N Pietralunga (PG) 43.494N ,12.4397E M 2.1 8.3 km
terremoto debole26/10/2021 04.42 1 km S Castello d'Argile (BO) 44.6743N ,11.2993E M 2.1 26.0 km
terremoto debole25/10/2021 17.53 Adriatico Centrale (MARE) 42.6117N ,15.9173E M 2.4 10.0 km
terremoto debole25/10/2021 07.51 8 km E Norcia (PG) 42.8057N ,13.1898E M 2.6 11.3 km
terremoto debole24/10/2021 18.31 4 km W Sefro (MC) 43.1557N ,12.9032E M 2.9 69.5 km
terremoto moderato24/10/2021 14.29 Tirreno Meridionale (MARE) 39.0072N ,15.2588E M 3.1 281.9 km
terremoto debole24/10/2021 11.00 Tirreno Meridionale (MARE) 38.5383N ,13.2953E M 2.4 4.5 km
terremoto moderato24/10/2021 05.39 3 km NE Cantiano (PU) 43.4967N ,12.6502E M 3.3 47.9 km
terremoto molto forte24/10/2021 05.11 Taiwan [Sea] 24.4512N ,121.973E M 6.1 77.0 km
terremoto debole23/10/2021 16.40 7 km SE Norcia (PG) 42.7603N ,13.1633E M 2.3 10.7 km
terremoto moderato23/10/2021 01.17 Costa Greca Ionica (GRECIA) 38.7125N ,20.5122E M 3.7 7.3 km
terremoto debole22/10/2021 08.53 Costa Calabra sud-orientale (Reggio di Calabria) 37.7972N ,16.1377E M 2.1 36.4 km
terremoto debole22/10/2021 06.04 Costa Calabra sud-orientale (Reggio di Calabria) 37.6207N ,16.2763E M 2.2 34.0 km
terremoto debole22/10/2021 05.49 2 km NE Monte Cavallo (MC) 43.013N ,13.016E M 2.0 7.9 km
terremoto moderato22/10/2021 03.17 3 km NE Tolmezzo (UD) 46.4258N ,13.037E M 3.2 11.2 km
terremoto debole21/10/2021 22.10 Adriatico Centrale (MARE) 42.6328N ,16.3045E M 2.7 10.0 km
terremoto debole21/10/2021 13.00 6 km W Castel del Rio (BO) 44.2243N ,11.4272E M 2.0 15.9 km
terremoto debole21/10/2021 10.48 Mar Ionio Settentrionale (MARE) 39.838N ,16.9087E M 2.2 24.2 km
terremoto debole21/10/2021 09.40 Costa Siracusana (Siracusa) 37.1297N ,15.3697E M 2.0 33.9 km
terremoto debole21/10/2021 09.24 3 km N Caino (BS) 45.6392N ,10.316E M 2.7 7.8 km
terremoto debole21/10/2021 02.30 5 km W Moggio Udinese (UD) 46.4247N ,13.134E M 2.1 14.7 km
terremoto moderato21/10/2021 00.28 5 km SE Zuglio (UD) 46.4322N ,13.0737E M 3.7 13.1 km
terremoto debole20/10/2021 21.06 2 km E Visso (MC) 42.9282N ,13.116E M 2.0 9.1 km
terremoto debole20/10/2021 19.26 2 km E Quattro Castella (RE) 44.6327N ,10.4952E M 2.4 28.0 km
terremoto moderato20/10/2021 12.08 Tirreno Meridionale (MARE) 38.5513N ,15.4677E M 3.6 185.9 km
terremoto debole20/10/2021 05.37 7 km W Montegallo (AP) 42.8522N ,13.2438E M 2.1 13.0 km
terremoto debole20/10/2021 00.09 6 km NW Ferriere (PC) 44.6823N ,9.4482E M 2.2 2.3 km
terremoto debole19/10/2021 22.30 Mar Ionio Meridionale (MARE) 37.5195N ,16.4718E M 2.3 28.5 km
terremoto debole19/10/2021 20.18 3 km E Pietralunga (PG) 43.4305N ,12.4748E M 2.2 8.9 km
terremoto debole19/10/2021 18.23 Costa Siciliana nord-orientale (Messina) 38.3233N ,15.2165E M 2.3 116.0 km
terremoto debole19/10/2021 14.43 Costa Marchigiana Fermana (Fermo) 43.2553N ,14.0328E M 2.2 5.9 km
terremoto debole19/10/2021 12.03 Costa Ferrarese (Ferrara) 44.6887N ,12.68E M 2.5 21.3 km
terremoto debole19/10/2021 10.52 Isole Eolie (Messina) 38.367N ,14.887E M 2.3 13.1 km
terremoto moderato19/10/2021 10.26 Costa Calabra sud-orientale (Reggio di Calabria) 37.6362N ,16.2958E M 3.1 34.0 km
terremoto forte19/10/2021 05.32 Greece [Sea] 34.5129N ,28.2085E M 5.8 16.8 km
terremoto debole19/10/2021 00.29 2 km SW Ussita (MC) 42.9353N ,13.1187E M 2.9 9.7 km
terremoto debole18/10/2021 18.15 Svizzera (SVIZZERA) 46.9607N ,9.134E M 2.2 10.4 km
terremoto debole18/10/2021 12.56 2 km SW Ussita (MC) 42.9272N ,13.1237E M 2.3 9.4 km
terremoto moderato18/10/2021 12.54 2 km E Visso (MC) 42.9288N ,13.1123E M 3.7 9.0 km
terremoto debole18/10/2021 08.03 Costa Siciliana centro-settentrionale (Palermo) 38.449N ,13.4938E M 2.6 0.8 km
terremoto molto forte18/10/2021 07.26 Vanuatu Islands [Sea: Vanuatu] -13.6617N ,166.957E M 6.0 105.5 km
terremoto debole17/10/2021 22.59 8 km NW Monte Sant'Angelo (FG) 41.7762N ,15.9302E M 2.6 24.9 km
terremoto debole17/10/2021 22.10 Adriatico Centrale (MARE) 42.6557N ,16.3452E M 2.0 30.9 km
terremoto forte17/10/2021 20.13 Albania 41.8268N ,19.6955E M 4.7 22.0 km
terremoto debole17/10/2021 06.28 4 km NE Spoleto (PG) 42.7735N ,12.7558E M 2.0 10.2 km
terremoto debole17/10/2021 06.20 4 km NE Spoleto (PG) 42.7708N ,12.7548E M 2.2 10.9 km
terremoto debole17/10/2021 05.56 2 km SE San Giovanni del Dosso (MN) 44.9562N ,11.1067E M 2.2 6.0 km
terremoto debole17/10/2021 05.35 5 km E Torraca (SA) 40.1012N ,15.6935E M 2.2 10.4 km
terremoto debole17/10/2021 02.19 3 km SW Santa Marina Salina (ME) 38.536N ,14.8603E M 2.5 236.7 km
terremoto debole16/10/2021 21.49 3 km S Rodì Milici (ME) 38.0817N ,15.1777E M 2.3 7.9 km
terremoto debole16/10/2021 16.41 8 km SE Norcia (PG) 42.7558N ,13.1825E M 2.0 10.1 km
terremoto debole16/10/2021 04.36 2 km E Preci (PG) 42.8853N ,13.0663E M 2.1 10.3 km
terremoto debole16/10/2021 02.54 5 km SE Castiglione dei Pepoli (BO) 44.0998N ,11.187E M 2.0 10.9 km
terremoto debole15/10/2021 12.15 3 km NE Visso (MC) 42.9555N ,13.0998E M 2.2 9.1 km
terremoto debole15/10/2021 07.06 Costa Catanese (Catania) 37.7897N ,15.3278E M 2.2 18.9 km
terremoto molto forte15/10/2021 02.44 Solomon Is. [Sea] -8.79609N ,158.449E M 6.3 16.4 km
terremoto debole14/10/2021 19.40 Slovenia (SLOVENIA) 45.7348N ,14.7907E M 2.6 4.4 km
terremoto debole14/10/2021 17.34 2 km NW Verghereto (FC) 43.8137N ,11.9957E M 2.6 7.5 km
terremoto debole14/10/2021 14.44 Costa Siciliana nord-orientale (Messina) 38.2782N ,15.1447E M 2.7 126.0 km
terremoto moderato14/10/2021 10.33 Tirreno Meridionale (MARE) 38.5062N ,11.9902E M 3.1 9.5 km
terremoto moderato13/10/2021 23.51 4 km S Norcia (PG) 42.7597N ,13.0805E M 3.0 10.8 km
terremoto debole13/10/2021 12.07 Costa Calabra sud-occidentale (Catanzaro, Vibo Valentia, Reggio di Calabria) 38.5553N ,15.6312E M 2.6 69.9 km
terremoto debole13/10/2021 11.39 3 km S Pieve Torina (MC) 43.0142N ,13.0488E M 2.0 12.5 km
terremoto debole13/10/2021 09.28 2 km E Campomaggiore (PZ) 40.5627N ,16.0943E M 2.2 36.4 km
terremoto debole13/10/2021 03.02 Costa Siciliana nord-occidentale (Trapani) 38.2933N ,12.6238E M 2.8 9.9 km
terremoto debole13/10/2021 01.51 2 km NW Solignano (PR) 44.6268N ,9.9575E M 2.1 26.5 km
terremoto debole13/10/2021 01.47 Costa Siciliana nord-orientale (Messina) 38.3602N ,15.3653E M 2.2 119.6 km
terremoto debole12/10/2021 16.23 4 km SW Amatrice (RI) 42.5958N ,13.2722E M 2.1 16.7 km
terremoto molto forte12/10/2021 09.24 Crete, Greece [Sea: Greece] 35.0191N ,26.2573E M 6.3 9.8 km
terremoto moderato11/10/2021 23.18 2 km NW Bascapè (PV) 45.3188N ,9.2957E M 3.0 34.5 km
terremoto debole11/10/2021 20.26 2 km SE Mugnano del Cardinale (AV) 40.9227N ,14.6602E M 2.0 9.0 km
terremoto moderato11/10/2021 11.33 4 km E Campomaggiore (PZ) 40.5583N ,16.1205E M 3.4 36.1 km
terremoto molto forte11/10/2021 09.10 Alaska Peninsula, United States [Sea: United States] 56.3977N ,-156.758E M 6.7 19.5 km
terremoto debole11/10/2021 06.42 6 km E Rose (CS) 39.4113N ,16.3695E M 2.2 11.4 km
terremoto debole11/10/2021 01.08 Slovenia (SLOVENIA) 45.8678N ,15.135E M 2.7 11.2 km
terremoto debole10/10/2021 04.55 3 km W Acquaviva Picena (AP) 42.9422N ,13.78E M 2.0 28.7 km
terremoto debole09/10/2021 22.58 4 km N Accumoli (RI) 42.7297N ,13.259E M 2.2 12.9 km
terremoto debole09/10/2021 22.40 12 km NE Bionaz (AO) 45.96N ,7.5188E M 2.3 4.0 km
terremoto moderato09/10/2021 14.57 Malta [Sea] 34.7818N ,14.0103E M 3.6 15.0 km
terremoto debole09/10/2021 13.10 Confine Austri-Slovenia (AUSTRIA, SLOVENIA) 46.2712N ,14.6688E M 2.6 10.0 km
terremoto molto forte09/10/2021 10.58 Fiji [Sea] -21.0727N ,174.597E M 6.4 496.1 km
terremoto moderato09/10/2021 06.52 Malta [Sea] 34.8248N ,13.9428E M 3.7 10.1 km
terremoto debole08/10/2021 09.08 2 km SE Bertinoro (FC) 44.1323N ,12.1453E M 2.1 5.9 km
terremoto debole08/10/2021 04.01 4 km E Campello sul Clitunno (PG) 42.8263N ,12.8247E M 2.1 12.9 km
terremoto debole08/10/2021 03.33 Costa Garganica (Foggia) 42.0363N ,15.7458E M 2.4 27.3 km
terremoto debole07/10/2021 20.19 1 km NE Forlimpopoli (FC) 44.1953N ,12.141E M 2.3 26.5 km
terremoto molto forte07/10/2021 20.13 Macquarie Island, Australia, region [Sea] -58.718N ,158.138E M 6.1 19.5 km
terremoto debole07/10/2021 19.43 Mar Ionio Meridionale (MARE) 37.2547N ,15.7758E M 2.3 23.9 km
terremoto debole07/10/2021 17.18 1 km SE Forlimpopoli (FC) 44.184N ,12.1347E M 2.8 21.9 km
terremoto debole07/10/2021 17.17 3 km E Forlimpopoli (FC) 44.1975N ,12.1672E M 2.7 21.8 km
terremoto debole07/10/2021 01.37 2 km S Sant'Elia Fiumerapido (FR) 41.5207N ,13.8605E M 2.0 13.9 km
terremoto molto forte06/10/2021 22.01 Pakistan 30.143N ,68.0034E M 6.0 0.8 km
terremoto forte06/10/2021 19.57 Bosnia and Herz. [Land] 43.6158N ,16.9653E M 4.7 10.0 km
terremoto debole06/10/2021 18.34 Costa Calabra sud-orientale (Reggio di Calabria) 37.6902N ,15.999E M 2.1 13.4 km
terremoto debole06/10/2021 14.50 Costa Siciliana nord-orientale (Messina) 38.3455N ,15.2007E M 2.3 115.1 km
terremoto debole06/10/2021 02.39 Tirreno Meridionale (MARE) 38.4728N ,15.364E M 2.0 130.0 km
terremoto debole06/10/2021 00.40 V3 Val Venosta (ITALIA, SVIZZERA, AUSTRIA) 46.794N ,10.3558E M 2.0 13.8 km
terremoto debole06/10/2021 00.36 6 km NW Sperlinga (EN) 37.8132N ,14.3305E M 2.0 5.5 km
terremoto debole05/10/2021 16.19 8 km SE Longi (ME) 37.9598N ,14.7903E M 2.9 10.0 km
terremoto debole05/10/2021 13.20 Costa Ragusana (Ragusa) 36.5518N ,15.0167E M 2.3 7.0 km
terremoto debole05/10/2021 09.39 4 km NE Lajatico (PI) 43.5008N ,10.7678E M 2.0 1.1 km
terremoto debole05/10/2021 05.41 Confine Italia-Svizzera (SVIZZERA) 45.9907N ,7.5025E M 2.3 10.4 km
terremoto moderato05/10/2021 05.39 Confine Italia-Svizzera (SVIZZERA) 45.9647N ,7.4997E M 3.9 8.5 km
terremoto debole05/10/2021 01.00 5 km NE Campotosto (AQ) 42.5992N ,13.4068E M 2.4 13.0 km
terremoto debole05/10/2021 00.43 5 km SE Corte Brugnatella (PC) 44.678N ,9.4232E M 2.0 7.6 km
terremoto debole04/10/2021 12.59 2 km SE Priolo Gargallo (SR) 37.1472N ,15.1967E M 2.0 5.9 km
terremoto debole04/10/2021 07.49 2 km SE Montese (MO) 44.2543N ,10.96E M 2.2 9.6 km
terremoto debole04/10/2021 04.09 Confine Italia-Svizzera (SVIZZERA) 45.9978N ,7.5103E M 2.5 10.6 km
terremoto debole03/10/2021 17.11 Costa Ligure Occidentale (Imperia) 43.7827N ,8.2985E M 2.9 24.0 km
terremoto debole03/10/2021 16.42 Confine Austria-Germania (AUSTRIA, GERMANIA) 47.2783N ,11.4488E M 2.0 10.0 km
terremoto debole03/10/2021 15.42 6 km N Silandro (BZ) 46.6788N ,10.762E M 2.8 11.5 km
terremoto debole03/10/2021 06.14 Adriatico Centrale (MARE) 42.7028N ,16.12E M 2.6 25.8 km
terremoto debole03/10/2021 05.07 4 km E Geraci Siculo (PA) 37.8713N ,14.1997E M 2.1 22.5 km
terremoto debole03/10/2021 04.22 3 km E Teora (AV) 40.8558N ,15.2918E M 2.3 11.3 km
terremoto debole02/10/2021 23.36 2 km E Casella (GE) 44.5445N ,9.0225E M 2.2 9.3 km
terremoto debole02/10/2021 16.25 3 km NW Solofra (AV) 40.8568N ,14.8317E M 2.2 9.4 km
terremoto debole02/10/2021 08.02 Mar Ionio Meridionale (MARE) 37.3587N ,16.094E M 2.1 10.0 km
terremoto moderato02/10/2021 02.39 Malta [Sea] 34.7343N ,14.3382E M 3.6 18.6 km
terremoto debole02/10/2021 02.19 6 km E San Felice sul Panaro (MO) 44.8627N ,11.2132E M 2.1 4.2 km
terremoto debole02/10/2021 00.49 Costa Siciliana nord-orientale (Messina) 38.3178N ,14.7743E M 2.7 129.7 km
terremoto debole01/10/2021 07.28 4 km N Spoleto (PG) 42.7732N ,12.7525E M 2.0 10.6 km
terremoto debole01/10/2021 04.52 Costa Siciliana nord-orientale (Messina) 38.322N ,15.4162E M 2.5 122.5 km
terremoto debole01/10/2021 02.20 4 km E Cerignale (PC) 44.6663N ,9.401E M 2.2 7.2 km
terremoto debole30/09/2021 23.23 Adriatico Centrale (MARE) 42.6382N ,15.7687E M 2.6 32.2 km
terremoto debole30/09/2021 20.09 Tirreno Meridionale (MARE) 38.549N ,15.4978E M 2.1 88.3 km
terremoto debole30/09/2021 19.10 2 km SE Parenti (CS) 39.1472N ,16.4247E M 2.1 8.4 km
terremoto moderato30/09/2021 07.46 Adriatico Centrale (MARE) 42.6173N ,16.2107E M 3.2 10.6 km
terremoto debole30/09/2021 04.52 Tirreno Meridionale (MARE) 38.6702N ,15.4193E M 2.3 170.2 km
terremoto moderato29/09/2021 14.20 5 km NE Valdobbiadene (TV) 45.9427N ,12.0142E M 3.3 10.6 km
terremoto debole28/09/2021 21.40 1 km NW Gangi (PA) 37.8083N ,14.2008E M 2.3 6.3 km
terremoto debole28/09/2021 19.05 2 km NE Ala (TN) 45.7682N ,11.0275E M 2.9 11.5 km
terremoto debole28/09/2021 17.53 Adriatico Centrale (MARE) 43.757N ,14.0617E M 2.9 11.9 km
terremoto debole28/09/2021 16.59 6 km E Norcia (PG) 42.8048N ,13.1628E M 2.5 10.7 km
terremoto debole28/09/2021 16.58 1 km SE Bagnoli di Sopra (PD) 45.1807N ,11.8948E M 2.9 6.0 km
terremoto debole28/09/2021 16.13 3 km SW Castel Ritaldi (PG) 42.8042N ,12.6563E M 2.3 6.7 km
terremoto debole28/09/2021 12.28 3 km E Vallo di Nera (PG) 42.7772N ,12.9012E M 2.1 10.2 km
terremoto debole28/09/2021 04.26 4 km NE Valdobbiadene (TV) 45.9332N ,12.0138E M 2.5 10.2 km
terremoto debole28/09/2021 03.48 Adriatico Centrale (MARE) 42.5795N ,16.1007E M 2.4 6.9 km
terremoto debole28/09/2021 01.42 5 km N Valdobbiadene (TV) 45.9455N ,12.0073E M 2.0 9.9 km
terremoto debole28/09/2021 01.32 4 km NE Valdobbiadene (TV) 45.9398N ,12.0158E M 2.7 9.6 km
terremoto debole28/09/2021 00.49 7 km NE Segusino (TV) 45.9672N ,12.0047E M 2.0 5.1 km
terremoto moderato28/09/2021 00.46 4 km NE Valdobbiadene (TV) 45.9395N ,12.0155E M 3.6 9.8 km
terremoto moderato28/09/2021 00.45 5 km NE Valdobbiadene (TV) 45.9468N ,12.022E M 3.4 11.1 km